Компания ИРС, Екатеринбург +7(343) 374-86-67
Доставка | Оплата | Контакты | О компании

поиск Корзина заказа Корзина заказа      
Главная / Компьютерная техника / Компьютерная техника / Видеокарты / Системы видеонаблюдения

Системы видеонаблюдения


Показать: Доступные к заказу  |  На складе  |  Все товары Дата обновления: 20.09.2019, 11:27

Артикул Товар Цена Наличие
Avenir Etoku
28073 CCTV Lens <SSE1212NI> объектив формата 1/3" (f=12.0mm, F 1.2) 507р. Склад
D-Link
218639 D-Link <DCS-700L> WiFi Baby Camera Jr. (640x480, f=2.44mm, 802.11b/g/n, микрофон, LED) 4592р. Склад
Espada
72635 Espada <DV015> Автомобильный видеорегистратор(640х480, Color, LCD 2.5", SD, USB) +авто.Адаптер 3590р. Склад
HIKVISION
292571 HIKVISION <DS-2CE18U8T-IT3 3.6mm> (3840x2160, f=3.6mm, EXIR LED) 6549р. Заказать на 01.10.2019
292586 HIKVISION <DS-2CE19U8T-IT3Z 2.8-12mm> (3840x2160, f=2.8-12mm, EXIR LED) 13898р. Заказать на 01.10.2019
304470 HIKVISION <DS-2CE56H5T-AVPIT3Z 2.8-12mm> (2560x1944, f=2.8-12mm, EXIR LED) 8077р. Заказать на 01.10.2019
280502 HIKVISION <DS-2CE56H5T-VPIT 6mm> (2560x1944, f=6mm, EXIR LED) 6549р. Заказать на 01.10.2019
292642 HIKVISION <DS-2CE57U8T-VPIT 2.8mm> (3840x2160, f=2.8mm, EXIR LED) 6549р. Заказать на 01.10.2019
292583 HIKVISION <DS-2CE57U8T-VPIT 3.6mm> (3840x2160, f=3.6mm, EXIR LED) 6549р. Заказать на 01.10.2019
292529 HIKVISION <DS-2CE59U8T-AVPIT3Z 2.8-12mm> (3840x2160, f=2.8-12mm, EXIR LED) 6549р. Заказать на 01.10.2019
304244 HIKVISION <DS-I114 6mm> (LAN, 1280x720, microSDXC, f=6mm, мик, LED) 4403р. Заказать на 01.10.2019
280534 HIKVISION <DS-T106 2.8-12mm> (1280x7200, f=2.8-12mm, LED) 2896р. Заказать на 01.10.2019
292609 HIKVISION <DS-T201 2.8mm> (1920x1080, f=2.8mm, LED) 1834р. Заказать на 01.10.2019
292603 HIKVISION HiWatch <DS-H208Q> (8 Video In/10 IP-cam, AHD/TVI,250FPS,1xSATA, LAN, 2*USB2.0, VGA,HDMI) 7568р. Заказать на 01.10.2019
noName
201608 ACTI <E42> IP Camera PoE (LAN, 2048x1536, f=3.3-12mm, microSDHC, LED) 24739р. Заказать на 01.10.2019
182027 ACTI <PLEN-0201> Объектив 2802р. Заказать на 01.10.2019
26629 Video Camera <YC-21P> Water Proof CCD Camera (512x582, 420TVL, Color, PAL) 2838р. Склад
25837 Video Camera CP-315 (500x582, Color, без объектива) без Б.П. 1150р. Склад
215150 Блок питания <PB-0910B> (Вх. AC100-240V, Вых. DC12V, 10A) выход питания для 9-и видеокамер, настенный 3566р. Заказать на 01.10.2019
Orient
62329 Orient <AB-CA-07D> Муляж камеры видеонаблюдения (LED, питание от батарей 3xAA) 364р. Склад
35741 Orient <AB-CA-11> Муляж камеры видеонаблюдения (LED, питание от батарей 2xAA) 568р. Заказать на 01.10.2019
240734 Orient <AB-CA-11B> Муляж камеры видеонаблюдения (LED, питание от батарей 2xAA) 568р. Заказать на 01.10.2019
290582 Orient <AB-CA-16> Муляж камеры видеонаблюдения (Датчик движения, поворотный механизм,LED,питание от батарей 3xAA) 393р. Заказать на 01.10.2019
240733 Orient <AB-CA-21> Муляж камеры видеонаблюдения (LED, питание от батарей 2xAA) 666р. Заказать на 01.10.2019
115704 Orient <AB-DM-24> Муляж камеры видеонаблюдения (LED, питание от батарей 2xAA) 275р. Заказать на 01.10.2019
207781 Orient <AB-DM-26> Муляж камеры видеонаблюдения 342р. Заказать на 01.10.2019
226066 Orient <AHD-225-SN14V> CMOS AHD PTZ Camera (1280x960, f=5-50mm, RS-485, 6 LED) 11642р. Заказать на 01.10.2019
315451 Orient <AHD-34-IF2B-4> CMOS AHD/CVBS/TVI/CVI Camera (1920x1080,f=3.6mm, 1UTP 100Mbps, LED) 1820р. Заказать на 01.10.2019
315450 Orient <AHD-34-IF2C-4> CMOS AHD/CVBS/TVI/CVI Camera (1920x1080,f=6mm, 1UTP 100Mbps, LED) 1820р. Заказать на 01.10.2019
272216 Orient <AHD-50-OF4V-4> CMOS AHD/CVBS/TVI/CVI Camera (2560x1440, f=2.8-12mm, LED) 4293р. Заказать на 01.10.2019
272741 Orient <AHD-50-SF2V-4> CMOS AHD/CVBS/TVI/CVI Camera (1920x1080,f=2.8-12mm, LED) 3784р. Заказать на 01.10.2019
288387 Orient <AHD-58-SE2VZ-4> CMOS AHD/CVBS/TVI/CVI Camera (1920x1080, f=2.7-13.5mm, LED) 5530р. Заказать на 01.10.2019
288384 Orient <AHD-940-IT2A-4 MIC> CMOS AHD/CVBS/TVI/CVI Camera (1920x1080,f=2.8mm, микрофон, LED) 1965р. Заказать на 01.10.2019
272745 Orient <AHD-940-OF4A-4> CMOS AHD/CVBS/TVI/CVI Camera (2560x1440, f=2.8mm, LED) 2474р. Заказать на 01.10.2019
272744 Orient <AHD-940-SF2A-4> CMOS AHD/CVBS/TVI/CVI Camera (1920x1080, f=2.8mm, LED) 2001р. Склад
272743 Orient <AHD-940-SF5A-4> CMOS AHD/CVBS/TVI/CVI Camera (2560x1920, f=2.8mm, LED) 3275р. Заказать на 01.10.2019
288382 Orient <AHD-955-KF5V-4> CMOS AHD/CVBS/TVI/CVI Camera (2592x1944, f=2.8-12mm, LED) 4075р. Заказать на 01.10.2019
190035 Orient <C662> переходники питания DC5.5M-> клеммы, DC5.5F-> клеммы 73р. Заказать на 01.10.2019
62345 Orient <C874> Переходник BNC-M-->RCA-F 51р. Заказать на 01.10.2019
307838 Orient <CS-300N> CMOS Camera (420TVL, Color, PAL, f=2.8mm,mic, 6 LED) 808р. Заказать на 01.10.2019
255323 Orient <CVAP-10> Кабель BNC+1RCA+питание для камеры видеонаблюдения, 10м 495р. Заказать на 01.10.2019
247339 Orient <CVAP-15> Кабель BNC+RCA+питание для камеры видеонаблюдения, 15метров 641р. Склад
195079 Orient <CVAP-20> Кабель BNC+1RCA+питание для камеры видеонаблюдения, 20м 764р. Заказать на 01.10.2019
247376 Orient <CVAP-30> Кабель BNC+RCA+питание для камеры видеонаблюдения, 30м 1019р. Заказать на 01.10.2019
255324 Orient <CVP-15> Кабель BNC+питание для камеры видеонаблюдения, 15метров 597р. Склад
115706 Orient <CVP-20> Кабель BNC+питание для камеры видеонаблюдения, 20м 714р. Заказать на 01.10.2019
247340 Orient <CVP-30> Кабель BNC+питание для камеры видеонаблюдения, 30м 1012р. Заказать на 01.10.2019
247341 Orient <CVP-7.5> Кабель BNC+питание для камеры видеонаблюдения, 7.5м 328р. Заказать на 01.10.2019
288393 Orient <DC-01NCL> Датчик температуры и влажности для IP-камер 398р. Заказать на 01.10.2019
190038 Orient <DC-16P> Разветвитель питания DC5.5F->16xDC5.5M 423р. Заказать на 01.10.2019
314886 Orient <IP-200-MH2AP> (1920x1080, f=2.8mm, 1UTP 100Mbps PoE) 2693р. Заказать на 01.10.2019
314885 Orient <IP-200-MH2B> (1920x1080, f=3.6mm, 1UTP 100Mbps) 2329р. Заказать на 01.10.2019
252200 Orient <IP-225-AH21V> (1920x1080, f=3.9-85.5mm, 1UTP 100Mbps, LED) 16881р. Заказать на 01.10.2019
294092 Orient <IP-235-AH5VZ> (2592x1944, f=5.1-51mm, 1UTP 100Mbps, LED) 17536р. Заказать на 01.10.2019
278090 Orient <IP-235-OH4VZ> (2560x1440, f=5.1-51mm, 1UTP 100Mbps, LED) 15935р. Заказать на 01.10.2019
278089 Orient <IP-235-SH2VZ> (1920x1080, f=5.1-51mm, 1UTP 100Mbps, LED) 14189р. Заказать на 01.10.2019
315485 Orient <IP-31-IH2A> (1920x1080, f=2.8mm, 1UTP 100Mbps, LED) 2838р. Заказать на 01.10.2019
315484 Orient <IP-31-IH2B> (1920x1080, f=3.6mm, 1UTP 100Mbps, LED) 2838р. Заказать на 01.10.2019
315483 Orient <IP-31-IH2C> (1920x1080, f=6mm, 1UTP 100Mbps, LED) 2838р. Заказать на 01.10.2019
278087 Orient <IP-325-AH5VPZ> (2592x1944, f=2.7-13.5mm, 1UTP 100Mbps, PoE, LED) 14262р. Заказать на 01.10.2019
271476 Orient <IP-33-IF2AP> (1920x1080, f=2.8mm, 1UTP 100Mbps PoE, LED) 3639р. Заказать на 01.10.2019
271475 Orient <IP-33-IF2BP> (1920x1080, f=3.6mm, 1UTP 100Mbps PoE, LED) 3639р. Заказать на 01.10.2019
290594 Orient <IP-33-IF2CP> (1920x1080, f=6mm, 1UTP 100Mbps PoE, LED) 3639р. Заказать на 01.10.2019
290593 Orient <IP-33-OH5BPSD> (2592x1944, f=3.6mm, 1UTP 100Mbps PoE, microSDXC, LED) 6331р. Заказать на 01.10.2019
269202 Orient <IP-33-SH24BPSD> (1920x1080, f=3.6mm, 1UTP 100Mbps PoE, microSDXC, LED) 4366р. Заказать на 01.10.2019
269183 Orient <IP-33-SH24CPSD> (1920x1080, f=6mm, 1UTP 100Mbps PoE, microSDXC, LED) 4293р. Заказать на 01.10.2019
315482 Orient <IP-33-SH5APSD> (2592x1944, f=2.8mm, 1UTP 100Mbps PoE, microSDXC, LED) 6622р. Заказать на 01.10.2019
315481 Orient <IP-33-SH8BPSD> (3840x2160, f=4mm, 1UTP 100Mbps PoE, microSDXC, LED) 10769р. Заказать на 01.10.2019
294026 Orient <IP-333SD-2M> (1920x1080, f=2.8mm, 1UTP 100Mbps) 5603р. Заказать на 01.10.2019
278958 Orient <IP-33g-IF2AP> (1920x1080, f=2.8mm, 1UTP 100Mbps PoE, 20LED) 3639р. Заказать на 01.10.2019
259473 Orient <IP-35-OH40B Wi-Fi> (2592x1520, f=3.6mm, 1UTP 100Mbps, WiFi, 36LED) 5603р. Заказать на 01.10.2019
247309 Orient <IP-36-720p Wi-Fi 32GB> (1280x720, f=3.6mm, 1UTP 100Mbps, WiFi, 36LED) 4446р. Заказать на 01.10.2019
248846 Orient <IP-365FE-1080p> (1920x1080, f=1.8mm, 1UTP 100Mbps PoE, 27LED) 4875р. Заказать на 01.10.2019
271238 Orient <IP-367FE-4M Wi-Fi> (2048x2048, f=1.05mm, 1UTP 100Mbps PoE, WiFi, LED) 8514р. Заказать на 01.10.2019
290591 Orient <IP-49-OH5VPZ> (2592x1944, f=2.7-13.5mm, 1UTP 100Mbps PoE, LED) 8732р. Заказать на 01.10.2019
278108 Orient <IP-49w-SH2VPSD> (1920x1080, f=2.8-12mm, 1UTP 100Mbps PoE, microSDXC, LED) 6476р. Заказать на 01.10.2019
248850 Orient <IP-49w-SH32VP> (2048x1536, f=2.8-12mm, 1UTP 100Mbps PoE, LED) 6767р. Заказать на 01.10.2019
290590 Orient <IP-55-OH5VP> (2592x1944, f=2.8-12mm, 1UTP 100Mbps PoE, LED) 7931р. Заказать на 01.10.2019
259472 Orient <IP-56g-OH40VZ Wi-Fi> (2592x1520, f=2.8-12mm, 1UTP 100Mbps, 100Mbps, WiFi, 2LED) 9096р. Заказать на 01.10.2019
271474 Orient <IP-58-IF2VP> (1920x1080, f=2.8-12mm, 1UTP 100Mbps PoE, LED) 4948р. Заказать на 01.10.2019
271473 Orient <IP-58-OH4VPSD> (2560x1440, f=2.8-12mm, 1UTP 100Mbps PoE, microSDXC, LED) 7204р. Заказать на 01.10.2019
271472 Orient <IP-58-SH2VPSD> (1920x1080, f=2.8-12mm, 1UTP 100Mbps, microSDXC, LED) 6476р. Заказать на 01.10.2019
315480 Orient <IP-58-SH2VPZSD> (1920x1080, f=2.7-13.5mm, 1UTP 100Mbps PoE, microSD, LED) 7204р. Заказать на 01.10.2019
315479 Orient <IP-58-SH5VPSD> (2592x1944, f=2.8-12mm, 1UTP 100Mbps PoE, microSD, LED) 8368р. Заказать на 01.10.2019
271471 Orient <IP-61-OH4VPZSD> (2560x1440, f=2.7-13.5mm, 1UTP 100Mbps PoE, microSDXC, LED) 7568р. Заказать на 01.10.2019
269182 Orient <IP-68w-SH24VPSD> (1920x1080, f=2.8-12mm, 1UTP 100Mbps PoE, microSDXC, LED) 6476р. Заказать на 01.10.2019
248847 Orient <IP-68w-SH24VPZ> (1920x1080, f=2.8-12mm, 1UTP 100Mbps PoE, LED) 7422р. Заказать на 01.10.2019
293993 Orient <IP-725-AH5VZ> (2592x1944, f=4.7-94mm, 1UTP 100Mbps, LED) 25103р. Заказать на 01.10.2019
294015 Orient <IP-75-MH2AP> (1920x1080, f=2.8mm, 1UTP 100Mbps PoE, LED) 3639р. Заказать на 01.10.2019
294014 Orient <IP-75-MH2DP> (1920x1080, f=8mm, 1UTP 100Mbps PoE, LED) 3566р. Заказать на 01.10.2019
291654 Orient <IP-76-MH2VP> (1920x1080, f=2.8-12mm, 1UTP 100Mbps PoE, LED) 4948р. Заказать на 01.10.2019
294013 Orient <IP-76-OH4VP> (2560x1440, f=2.8-12mm, 1UTP 100Mbps PoE, LED) 6622р. Заказать на 01.10.2019
290586 Orient <IP-940-SH2A MIC> (1920x1080, f=2.8mm, 1UTP 100Mbps, мик., LED) 4075р. Заказать на 01.10.2019
305011 Orient <IP-950-OH5APSD> (2592x1944, f=2.8, 1UTP 100Mbps PoE) 6622р. Заказать на 01.10.2019
290604 Orient <IP-950-OH5BPSD> (2592x1944, f=3.6mm, 1UTP 100Mbps PoE, microSDXC, LED) 6331р. Заказать на 01.10.2019
269671 Orient <IP-950-SH24APSD AUX> (1920x1080, f=2.8mm, 1UTP 100Mbps PoE, microSDXC, LED) 4948р. Заказать на 01.10.2019
278956 Orient <IP-950-SH2APSD MIC> (1920x1080, f=2.8mm, 1UTP 100Mbps PoE, мик., microSDXC, LED) 5167р. Заказать на 01.10.2019
294024 Orient <IP-950-SH2CPSD MIC> (1920x1080, f=6mm, 1UTP 100Mbps PoE, мик., microSDXC, LED) 5094р. Заказать на 01.10.2019
315477 Orient <IP-951-SH5APSD> (2592x1944, f=2.8mm, 1UTP 100Mbps PoE, microSD, LED) 6258р. Заказать на 01.10.2019
315476 Orient <IP-951-SH5BPSD> (2592x1944, f=3.6mm, 1UTP 100Mbps PoE, microSD, LED) 6258р. Заказать на 01.10.2019
315475 Orient <IP-951-SH8BPSD> (3840x2160, f=4mm, 1UTP 100Mbps PoE, microSDXC, LED) 10478р. Заказать на 01.10.2019
247342 Orient <IP-955-SH24VPSD> (1920x1080, f=2.8-12mm, 1UTP 100Mbps PoE, microSDXC, 24 LED) 6258р. Заказать на 01.10.2019
315474 Orient <IP-955-SH5VPSD> (2592x1944, f=2.8-12mm, 1UTP 100Mbps PoE, microSDXC, LED) 8150р. Заказать на 01.10.2019
321101 Orient <IP-955-SH5VPZSD> (2592x1944, f=2.7-13.5mm, 1UTP 100Mbps PoE, microSDXC, LED) 8805р. Заказать на 01.10.2019
315473 Orient <IP-968-SH2AP> (1920x1080, f=2.8mm, 1UTP 100Mbps PoE, LED) 5821р. Заказать на 01.10.2019
315472 Orient <IP-969-SH2AP> (1920x1080, f=2.8mm, 1UTP 100Mbps PoE, LED) 5821р. Заказать на 01.10.2019
229880 Orient <NCL-01(N)-720p WiFi> (1280x720, f=3.6mm, 1UTP 100Mbps, PTZ, microSD, микрофон, 11LED) 3711р. Заказать на 01.10.2019
257312 Orient <NCL-01N-1080p WiFi> (1920x1080, f=3.6mm, 1UTP 100Mbps, PTZ, microSD, микрофон, 10LED) 4956р. Заказать на 01.10.2019
198576 Orient <NT-2401R> Активный одноканальный приёмник видеосигнала по витой паре 575р. Заказать на 01.10.2019
271478 Orient <NT-605POE> Комплект для передачи данных и PoE по одному кабелю для двух устройств 415р. Заказать на 01.10.2019
271477 Orient <NT-606POE> Комплект для передачи данных и PoE по одному кабелю для двух устройств 386р. Заказать на 01.10.2019
223895 Orient <NT-633POE> PoE injector + PoE splitter (Вх. DC12V, Вых. DC 12V, 30м, без БП) 293р. Заказать на 01.10.2019
267497 Orient <NT-635POE> PoE injector + PoE splitter (Вх. DC12V, Вых. DC 12V, 30м, без БП) 292р. Заказать на 01.10.2019
314887 Orient <NT-636POE> PoE injector + PoE splitter (Вх. DC12V, Вых.DC 12V, 30м, без БП) 299р. Заказать на 01.10.2019
315456 Orient <NVR+4D/5M POE> (4 IP-cam PoE, 1xSATA, LAN, 2*USB2.0, VGA, HDMI + 4 cam F=3.6, LED) 24521р. Заказать на 01.10.2019
248833 Orient <NVR+4IPC 720p Wi-Fi> (1xLAN, 3.5"SATA,WiFi, 2*USB, HDMI, VGA + 4xCam 1280 x 720, f=3.6mm, 35 LED) 17536р. Заказать на 01.10.2019
294488 Orient <NVR-1808/5M XM> (8 IP-cam, 1xSATA, LAN, 2*USB2.0, VGA, HDMI) 3711р. Заказать на 01.10.2019
315460 Orient <NVR-8304POE/5M> (4 IP-cam, 1xSATA, 5xLAN, 2*USB2.0, VGA, HDMI) 6840р. Заказать на 01.10.2019
278082 Orient <NVR-8309/5M> (9 IP-cam, 1xSATA, LAN, 2*USB2.0, VGA, HDMI) 3930р. Заказать на 01.10.2019
278081 Orient <NVR-8316/5M> (16 IP-cam, 1xSATA, LAN, 2*USB2.0, VGA, HDMI) 5167р. Заказать на 01.10.2019
305010 Orient <NVR-8808POE/5M> (9 IP-cam/8 IP-cam PoE, 1xSATA, LAN, 2*USB2.0, VGA, HDMI) 8441р. Заказать на 01.10.2019
305009 Orient <NVR-8809/5M Wi-Fi> (9 IP-cam, 1xSATA, 4xLAN, 2*USB2.0, WiFi, VGA, HDMI) 7713р. Заказать на 01.10.2019
315459 Orient <NVR-8816POE/4K> (25 IP-cam/16 IP-cam PoE, 4xSATA, GbLAN, 2*USB2.0, eSATA, VGA, HDMI) 22702р. Заказать на 01.10.2019
278080 Orient <NVR-8836/4K V2> (36 IP-cam, 2xSATA, GbLAN, 1xUSB2.0, 1xUSB 3.0, VGA, HDMI) 14844р. Заказать на 01.10.2019
290595 Orient <POE-653R 48V> PoE splitter (Вх. PoE 48V, Вых. DC12V, 1.5A) 495р. Заказать на 01.10.2019
315487 Orient <POE-655R 24/12> PoE splitter (Вх. PoE 24V, Вых. DC12V) 401р. Заказать на 01.10.2019
260222 Orient <POE-655R 48V 1GB> Внешний PoE splitter (Вх. PoE 48V, Вых. DC12V, 1.5A) 830р. Заказать на 01.10.2019
254046 Orient <POE-655R 48V> PoE splitter (Вх. PoE 48V, Вых. DC12V, 1.5A) 524р. Заказать на 01.10.2019
247312 Orient <POE-655T> PoE injector (Вх. DC24-48V, Вых. DC24-48V) 273р. Заказать на 01.10.2019
315486 Orient <POE-656R 48V/12> Внешний PoE splitter (Вх. PoE 48V, Вых. DC12V) 532р. Заказать на 01.10.2019
260210 Orient <SAB-33/950WP> Распределительная коробка для монтажа видеокамер 33/950 серии 801р. Заказать на 01.10.2019
260209 Orient <SAB-950> Распределительная коробка для монтажа видеокамер 950 серии 452р. Заказать на 01.10.2019
252060 Orient <SAL-140IR 12V> IR прожектор (30 LED, 140м) 3857р. Заказать на 01.10.2019
252059 Orient <SAL-140IR 220V> IR прожектор (30 LED, 140м) 4104р. Заказать на 01.10.2019
276810 Orient <SAL-140WH 220V> (15 LED, 140м) 1674р. Заказать на 01.10.2019
252058 Orient <SAL-180IR 12V> IR прожектор (30 LED, 180м) 3930р. Заказать на 01.10.2019
252057 Orient <SAL-180IR 220V> IR прожектор (30 LED, 180м) 4293р. Заказать на 01.10.2019
276809 Orient <SAL-180WH 220V> (30 LED, 180м) 1892р. Заказать на 01.10.2019
252062 Orient <SAL-70IR 12V> IR прожектор (15 LED, 70м) 2693р. Заказать на 01.10.2019
28288 Orient <SAP-02(N)>Блок питания (Вх. AC110-265V, Вых. DC12V, 1000mA) 317р. Заказать на 01.10.2019
49332 Orient <SAP-03(N)>Блок питания (Вх. AC110-222V, Вых. DC12V, 1500mA) 393р. Заказать на 01.10.2019
198580 Orient <SAP-04N> Блок питания (Вх. AC110-240V, Вых. DC12V, 2000mA) 459р. Склад
210659 Orient <UTC-01> Пульт удаленной настройки камеры видеонаблюдения 386р. Заказать на 01.10.2019
257311 Orient <VDC-201S> Вызывная панель для видеофонов (420TVL, mic., LED) 1456р. Заказать на 01.10.2019
257310 Orient <VDC-204S> Вызывная панель для видеофонов (420TVL, mic., LED) 1456р. Заказать на 01.10.2019
207785 Orient <VMC-04> Активный микрофон для видеосистем 219р. Заказать на 01.10.2019
207784 Orient <VMC-04X> Активный микрофон для видеосистем 328р. Заказать на 01.10.2019
207783 Orient <VMC-06X> Активный микрофон для видеосистем 267р. Заказать на 01.10.2019
234715 Orient <VMC-07X> Активный микрофон для видеосистем 488р. Заказать на 01.10.2019
282208 Orient <WF-101> (1280x720, f=3.6mm, WiFi, PTZ, microSD, микрофон, LED) 2220р. Заказать на 01.10.2019
282207 Orient <WF-102> (1280x720, f=3.6mm, WiFi, PTZ, microSD, микрофон, LED) 2220р. Заказать на 01.10.2019
282206 Orient <WF-103> (1280x960 f=1.44mm, WiFi, microSD, микрофон, LED) 2765р. Заказать на 01.10.2019
314881 Orient <WF-201> (1920x1080, f=3.6mm, 1UTP 100Mbps, WiFi, PTZ, microSD, микрофон, LED) 2911р. Заказать на 01.10.2019
314879 Orient <WF-203> (1920x1080, f=2.8-12mm, 1UTP 100Mbps, WiFi, PTZ, microSD, микрофон, LED) 7931р. Заказать на 01.10.2019
313174 Orient <WF-501> (2592 x 1944, f=1.8mm, 1UTP 100Mbps, WiFi, microSDXC, микрофон, LED) 7786р. Заказать на 01.10.2019
315462 Orient <XVR+4B/2M> (XVR 4 Video In AHD, 100FPS, 1xSATA, LAN, 3*USB2.0, RS-485,VGA,HDMI + 4 cam F=3.6, LED) 11642р. Заказать на 01.10.2019
315461 Orient <XVR+4D/2M> (XVR 4 Video In AHD, 100FPS, 1xSATA, LAN, 3*USB2.0, RS-485,VGA,HDMI + 4 cam F=3.6, LED) 11642р. Заказать на 01.10.2019
290548 Orient <XVR+4D/720p> (XVR 4Video In AHD,100FPS,1xSATA,LAN,USB2.0,VGA,HDMI + 4 cam F=3.6, LED) 8659р. Заказать на 01.10.2019
315469 Orient <XVR-1108/1M> (8 Video In/16 IP-cam, AHD/CVI/TVI,400FPS,1xSATA, LAN, 3*USB2.0, RS-485,VGA,HDMI) 5385р. Заказать на 01.10.2019
315468 Orient <XVR-1108/5M> (8 Video In/16 IP-cam, AHD/CVI/TVI,400FPS,1xSATA, LAN, 3*USB2.0, RS-485,VGA,HDMI) 6112р. Заказать на 01.10.2019
315467 Orient <XVR-1116/1M> (16 Video In/16 IP-cam, AHD/CVI/TVI,400FPS,1xSATA, LAN, 2*USB2.0, RS-485,VGA,HDMI) 8441р. Заказать на 01.10.2019
276963 Orient <XVR-1904/1080H/LCD> (4 Video In/12 IP-cam, 7", AHD/CVI/TVI,300FPS,1xSATA,LAN,2*USB2.0,RS-485,VGA,HDMI) 7786р. Заказать на 01.10.2019
275017 Orient <XVR-1908/1080H> (8 Video In/16 IP-cam, AHD/CVI/TVI, 400FPS, 1xSATA, LAN, 2*USB2.0, RS-485,VGA,HDMI,ПДУ) 5458р. Заказать на 01.10.2019
275016 Orient <XVR-1916/1080H> (16 Video In/8 IP-cam, AHD/CVI/TVI, 304FPS, 2xSATA, LAN, 2*USB2.0, RS-485,VGA,HDMI,ПДУ) 8295р. Заказать на 01.10.2019
315465 Orient <XVR-2116/1M> (16 Video In/16 IP-cam, AHD/CVI/TVI,400FPS,2xSATA, LAN, 3*USB2.0, RS-485,VGA,HDMI) 9241р. Заказать на 01.10.2019
275015 Orient <XVR-2904/1080H> (4 Video In/12 IP-cam, AHD/CVI/TVI, 300FPS, 2xSATA, LAN, 2*USB2.0, RS-485,VGA,HDMI,ПДУ) 4206р. Заказать на 01.10.2019
275014 Orient <XVR-2908/1080H> (8 Video In/16 IP-cam, AHD/CVI/TVI, 400FPS, 2xSATA, LAN, 2*USB2.0, RS-485,VGA,HDMI,ПДУ) 5894р. Заказать на 01.10.2019
275013 Orient <XVR-2916/1080H> (16 Video In/16 IP-cam, AHD/CVI/TVI, 400FPS, 2xSATA, LAN, 2*USB2.0, RS-485,VGA,HDMI,ПДУ) 8950р. Заказать на 01.10.2019
315463 Orient <XVR-8132/1M> (32 Video In/32 IP-cam, AHD/CVI/TVI,800FPS,8xSATA, GbLAN, 2*USB2.0,eSATA,RS-485,VGA,HDMI) 22993р. Заказать на 01.10.2019
315455 Orient NT-602N (приёмн.+передатч. для передачи видеосигнала и питания по витой паре) 233р. Заказать на 01.10.2019
315454 Orient NT-621AX (приёмн.+передатч. для передачи видео/аудиосигнала и питания по витой паре) 510р. Заказать на 01.10.2019
315453 Orient NT-621N (приёмн.+передатч. для передачи видеосигнала по витой паре) 452р. Заказать на 01.10.2019
115709 Блок питания Orient <PA-06> (Вх. AC100-240V, Вых. DC12V, 3000mA) 677р. Заказать на 01.10.2019
115708 Блок питания Orient <PA-08> (Вх. AC100-240V, Вых. DC12V, 4000mA) 928р. Склад
190040 Блок питания Orient <PA-11> (Вх. AC100-240V, Вых. DC12V, 5500mA) 1151р. Склад
269668 Блок питания Orient <PB-0210> (Вх. AC100-240V, Вых. DC12V, 3500mA) в металлическом корпусе, 1 выход 634р. Склад
82365 Блок питания Orient <PB-09(A/N)> (Вх. AC90-260V, Вых. DC12V, 7500mA) выход питания для 9-и видеокамер, настенный 2329р. Заказать на 01.10.2019
237414 Блок питания Orient <PB-1810> (Вх. AC100-240V, Вых. DC12V, 10A) в металлическом корпусе, 18 выходов 3493р. Заказать на 01.10.2019
237413 Блок питания Orient <PB-1820B> (Вх. AC100-240V, Вых. DC12V, 20A) в металлическом корпусе, 18 выходов 5967р. Заказать на 01.10.2019
190037 Блок питания Orient <PB-20U2> (Вх. AC100-240V, Вых. DC12V, 10000mA) в металлическом корпусе, 2 выхода 1066р. Заказать на 01.10.2019
190036 Блок питания Orient <PB-40U3> (Вх. AC100-240V, Вых. DC12V, 20000mA) в металлическом корпусе, 3 выхода 1820р. Заказать на 01.10.2019
99838 Переходник Orient NT-621A (приёмн.+передатч. для передачи видеосигнала, звука и питания по витой паре) 488р. Заказать на 01.10.2019
62335 Разветвитель питания Orient DC-2P 110р. Заказать на 01.10.2019
62334 Разветвитель питания Orient DC-4P 139р. Склад
TENDA
256434 TENDA <C5+> HD Wireless Cloud Camera (1280x720, f=3.6mm, 802.11n, microSDXC, мик.) 2176р. Заказать на 01.10.2019
Ubiquiti
277716 UBIQUITI <UVC-G3-MICRO> Wireless IP Security Camera (1920x1080, 802.11b/g/n, f=2.7mm, мик., LED) 14043р. Заказать на 01.10.2019
277715 UBIQUITI <UVC-G3-PRO> 1080p Indoor/Outdoor IP Camera (LAN, 1920x1080, f=3-9mm, мик., 12 LED) 22265р. Заказать на 01.10.2019
Xiaomi
306611 Xiaomi <QDJ4047GL White> Home Security Camera Basic 1080p (1920x1080, f=2.8mm, 802.11n, microSDXC, мик., 8LED) 2183р. Заказать на 01.10.2019
Компания ИРС © 2000 - 2018

Тел/факс: 8 (343) 374-86-67
620137, Екатеринбург, ул. Июльская, д. 41
Читайте отзывы покупателей и оценивайте качество магазина ИРС на Яндекс.Маркете

Товар добавлен в корзину

Фото Наименование товара Цена Кол-во